createdAt,value
2018-07-20T00:00:15.393Z,22.45
2018-07-20T00:02:43.420Z,22.49
2018-07-20T00:05:11.621Z,22.55
2018-07-20T00:07:39.546Z,22.53
2018-07-20T00:10:07.539Z,22.54
2018-07-20T00:12:35.626Z,22.52
2018-07-20T00:15:03.755Z,22.51
2018-07-20T00:17:32.002Z,22.48
2018-07-20T00:20:00.058Z,22.50
2018-07-20T00:22:28.045Z,22.50
2018-07-20T00:24:56.065Z,22.50
2018-07-20T00:27:24.074Z,22.55
2018-07-20T00:29:52.042Z,22.47
2018-07-20T00:32:20.023Z,22.47
2018-07-20T00:34:47.965Z,22.47
2018-07-20T00:37:15.998Z,22.49
2018-07-20T00:39:44.492Z,22.42
2018-07-20T00:42:12.465Z,22.37
2018-07-20T00:44:40.479Z,22.42
2018-07-20T00:47:08.403Z,22.40
2018-07-20T00:49:36.407Z,22.39
2018-07-20T00:52:04.567Z,22.44
2018-07-20T00:54:32.509Z,22.38
2018-07-20T00:57:00.454Z,22.38
2018-07-20T00:59:28.885Z,22.39
2018-07-20T01:01:57.275Z,22.42
2018-07-20T01:04:25.199Z,22.42
2018-07-20T01:06:53.196Z,22.51
2018-07-20T01:09:21.288Z,22.51
2018-07-20T01:11:49.266Z,22.50
2018-07-20T01:14:17.243Z,22.46
2018-07-20T01:16:45.287Z,22.46
2018-07-20T01:19:13.244Z,22.43
2018-07-20T01:21:41.177Z,22.47
2018-07-20T01:24:09.157Z,22.47
2018-07-20T01:26:37.217Z,22.45
2018-07-20T01:29:05.159Z,22.41
2018-07-20T01:31:33.120Z,22.41
2018-07-20T01:34:01.456Z,22.42
2018-07-20T01:36:29.525Z,22.47
2018-07-20T01:38:57.507Z,22.42
2018-07-20T01:41:25.539Z,22.44
2018-07-20T01:43:53.464Z,22.42
2018-07-20T01:46:21.472Z,22.44
2018-07-20T01:48:49.740Z,22.45
2018-07-20T01:51:17.661Z,22.48
2018-07-20T01:53:45.619Z,22.39
2018-07-20T01:56:13.693Z,22.42
2018-07-20T01:58:41.611Z,22.42
2018-07-20T02:01:09.616Z,22.49
2018-07-20T02:03:37.590Z,22.48
2018-07-20T02:06:05.905Z,22.53
2018-07-20T02:08:33.900Z,22.58
2018-07-20T02:11:01.952Z,22.56
2018-07-20T02:13:30.014Z,22.60
2018-07-20T02:15:58.473Z,22.59
2018-07-20T02:18:26.621Z,22.58
2018-07-20T02:20:54.616Z,22.61
2018-07-20T02:23:23.136Z,22.60
2018-07-20T02:25:51.137Z,22.59
2018-07-20T02:28:19.131Z,22.60
2018-07-20T02:30:47.137Z,22.72
2018-07-20T02:33:15.083Z,22.75
2018-07-20T02:35:43.046Z,22.72
2018-07-20T02:38:11.046Z,22.75
2018-07-20T02:40:39.004Z,22.79
2018-07-20T02:43:06.973Z,22.75
2018-07-20T02:45:34.921Z,22.79
2018-07-20T02:48:03.071Z,22.84
2018-07-20T02:50:31.036Z,22.79
2018-07-20T02:52:59.007Z,22.73
2018-07-20T02:55:26.917Z,22.77
2018-07-20T02:57:55.063Z,22.71
2018-07-20T03:00:23.126Z,22.75
2018-07-20T03:02:51.025Z,22.67
2018-07-20T03:05:18.968Z,22.70
2018-07-20T03:07:47.007Z,22.65
2018-07-20T03:10:15.052Z,22.70
2018-07-20T03:12:43.144Z,22.72
2018-07-20T03:15:11.099Z,22.76
2018-07-20T03:17:39.236Z,22.84
2018-07-20T03:20:07.196Z,22.86
2018-07-20T03:22:35.273Z,22.77
2018-07-20T03:25:03.713Z,22.89
2018-07-20T03:27:31.626Z,22.90
2018-07-20T03:29:59.676Z,22.88
2018-07-20T03:32:27.793Z,22.87
2018-07-20T03:34:55.831Z,22.86
2018-07-20T03:37:24.540Z,22.88
2018-07-20T03:39:52.681Z,22.86
2018-07-20T03:42:20.699Z,22.89
2018-07-20T03:44:48.759Z,22.88
2018-07-20T03:47:16.787Z,22.88
2018-07-20T03:49:45.256Z,22.91
2018-07-20T03:52:13.269Z,22.88
2018-07-20T03:54:41.254Z,22.87
2018-07-20T03:57:09.336Z,22.91
2018-07-20T03:59:37.343Z,22.89
2018-07-20T04:02:05.338Z,22.88
2018-07-20T04:04:33.354Z,22.85
2018-07-20T04:07:01.417Z,22.87
2018-07-20T04:09:29.434Z,22.90
2018-07-20T04:11:57.534Z,22.80
2018-07-20T04:14:25.565Z,22.78
2018-07-20T04:16:53.562Z,22.86
2018-07-20T04:19:21.726Z,22.83
2018-07-20T04:21:49.934Z,22.83
2018-07-20T04:24:17.945Z,22.89
2018-07-20T04:26:45.900Z,22.85
2018-07-20T04:29:13.883Z,22.82
2018-07-20T04:31:41.965Z,22.89
2018-07-20T04:34:09.928Z,22.86
2018-07-20T04:36:38.033Z,22.79
2018-07-20T04:39:10.108Z,22.85
2018-07-20T04:41:38.368Z,22.90
2018-07-20T04:44:06.401Z,22.92
2018-07-20T04:46:34.383Z,23.03
2018-07-20T04:49:02.503Z,22.98
2018-07-20T04:51:30.491Z,22.94
2018-07-20T04:53:58.522Z,22.86
2018-07-20T04:56:26.821Z,22.91
2018-07-20T04:58:54.835Z,22.92
2018-07-20T05:01:22.976Z,22.98
2018-07-20T05:03:51.250Z,22.99
2018-07-20T05:06:19.319Z,23.01
2018-07-20T05:08:47.379Z,23.09
2018-07-20T05:11:15.592Z,23.00
2018-07-20T05:13:43.656Z,22.82
2018-07-20T05:16:11.899Z,22.63
2018-07-20T05:18:39.959Z,22.59
2018-07-20T05:21:08.056Z,22.65
2018-07-20T05:23:37.025Z,22.75
2018-07-20T05:26:05.082Z,22.87
2018-07-20T05:28:33.170Z,22.83
2018-07-20T05:31:01.246Z,22.79
2018-07-20T05:33:29.192Z,22.65
2018-07-20T05:35:57.170Z,22.43
2018-07-20T05:38:25.422Z,22.29
2018-07-20T05:40:53.836Z,22.25
2018-07-20T05:43:21.859Z,22.28
2018-07-20T05:45:49.821Z,22.17
2018-07-20T05:48:17.948Z,22.28
2018-07-20T05:50:45.935Z,22.40
2018-07-20T05:53:13.932Z,22.45
2018-07-20T05:55:41.954Z,22.59
2018-07-20T05:58:10.056Z,22.75
2018-07-20T06:00:38.254Z,22.91
2018-07-20T06:03:06.316Z,23.01
2018-07-20T06:05:34.404Z,23.21
2018-07-20T06:08:02.694Z,23.20
2018-07-20T06:10:31.172Z,23.42
2018-07-20T06:12:59.478Z,23.43
2018-07-20T06:15:27.474Z,23.57
2018-07-20T06:17:56.407Z,23.69
2018-07-20T06:20:24.446Z,23.79
2018-07-20T06:22:52.503Z,24.08
2018-07-20T06:25:20.654Z,24.36
2018-07-20T06:27:48.660Z,24.57
2018-07-20T06:30:16.704Z,24.24
2018-07-20T06:32:44.726Z,24.20
2018-07-20T06:35:12.793Z,24.32
2018-07-20T06:37:40.982Z,24.35
2018-07-20T06:40:09.110Z,24.51
2018-07-20T06:42:37.213Z,24.52
2018-07-20T06:45:05.708Z,24.56
2018-07-20T06:47:33.696Z,24.48
2018-07-20T06:50:05.935Z,24.36
2018-07-20T06:52:34.011Z,24.45
2018-07-20T06:55:01.995Z,24.04
2018-07-20T06:57:29.947Z,24.09
2018-07-20T06:59:58.038Z,24.19
2018-07-20T07:02:25.988Z,24.28
2018-07-20T07:04:54.020Z,24.33
2018-07-20T07:07:22.181Z,24.12
2018-07-20T07:09:50.161Z,24.14
2018-07-20T07:12:18.148Z,23.90
2018-07-20T07:14:46.218Z,23.76
2018-07-20T07:17:14.263Z,23.74
2018-07-20T07:19:42.369Z,23.69
2018-07-20T07:22:10.454Z,23.64
2018-07-20T07:24:38.456Z,23.66
2018-07-20T07:27:06.496Z,23.61
2018-07-20T07:29:34.549Z,23.63
2018-07-20T07:32:02.667Z,23.69
2018-07-20T07:34:30.638Z,23.66
2018-07-20T07:36:58.620Z,23.66
2018-07-20T07:39:26.691Z,23.75
2018-07-20T07:41:54.718Z,23.79
2018-07-20T07:44:22.767Z,23.81
2018-07-20T07:46:50.859Z,23.86
2018-07-20T07:49:19.036Z,23.81
2018-07-20T07:51:47.271Z,23.81
2018-07-20T07:54:15.433Z,23.96
2018-07-20T07:56:43.416Z,24.05
2018-07-20T07:59:11.447Z,23.96
2018-07-20T08:01:39.487Z,24.01
2018-07-20T08:04:07.523Z,24.07
2018-07-20T08:06:35.628Z,24.15
2018-07-20T08:09:05.733Z,24.18
2018-07-20T08:11:33.863Z,24.25
2018-07-20T08:14:01.820Z,24.30
2018-07-20T08:16:29.731Z,24.38
2018-07-20T08:18:57.720Z,24.49
2018-07-20T08:21:25.799Z,24.53
2018-07-20T08:23:53.954Z,24.64
2018-07-20T08:26:22.115Z,24.61
2018-07-20T08:28:50.180Z,24.75
2018-07-20T08:31:18.269Z,24.56
2018-07-20T08:33:46.441Z,24.61
2018-07-20T08:36:14.510Z,24.62
2018-07-20T08:38:42.543Z,24.83
2018-07-20T08:41:11.018Z,25.02
2018-07-20T08:43:39.048Z,25.08
2018-07-20T08:46:07.012Z,25.04
2018-07-20T08:48:35.114Z,25.30
2018-07-20T08:51:03.187Z,25.16
2018-07-20T08:53:31.655Z,25.24
2018-07-20T08:55:59.823Z,25.49
2018-07-20T08:58:27.877Z,25.71
2018-07-20T09:00:55.871Z,25.50
2018-07-20T09:03:23.927Z,25.75
2018-07-20T09:05:51.953Z,25.98
2018-07-20T09:08:20.498Z,26.05
2018-07-20T09:10:48.563Z,26.35
2018-07-20T09:13:16.662Z,26.66
2018-07-20T09:15:44.659Z,26.50
2018-07-20T09:18:12.802Z,26.17
2018-07-20T09:20:40.992Z,26.04
2018-07-20T09:23:09.157Z,25.68
2018-07-20T09:25:37.203Z,25.62
2018-07-20T09:28:05.190Z,25.72
2018-07-20T09:30:33.651Z,25.74
2018-07-20T09:33:01.822Z,25.90
2018-07-20T09:35:29.802Z,26.06
2018-07-20T09:37:58.345Z,26.06
2018-07-20T09:40:26.485Z,26.20
2018-07-20T09:42:54.593Z,26.06
2018-07-20T09:45:22.673Z,26.04
2018-07-20T09:47:50.775Z,25.99
2018-07-20T09:50:27.929Z,26.09
2018-07-20T09:52:55.913Z,26.06
2018-07-20T09:55:23.988Z,26.02
2018-07-20T09:57:52.026Z,26.08
2018-07-20T10:00:25.303Z,26.06
2018-07-20T10:02:53.356Z,25.97
2018-07-20T10:05:21.515Z,25.97
2018-07-20T10:07:49.531Z,26.13
2018-07-20T10:10:17.607Z,26.30
2018-07-20T10:12:45.773Z,26.29
2018-07-20T10:15:14.070Z,26.17
2018-07-20T10:17:42.125Z,26.19
2018-07-20T10:20:10.151Z,26.24
2018-07-20T10:22:38.180Z,26.22
2018-07-20T10:25:06.205Z,26.47
2018-07-20T10:27:34.335Z,26.73
2018-07-20T10:30:02.485Z,26.80
2018-07-20T10:32:30.461Z,26.89
2018-07-20T10:34:58.726Z,26.98
2018-07-20T10:37:26.705Z,27.09
2018-07-20T10:39:54.691Z,27.20
2018-07-20T10:42:22.645Z,27.32
2018-07-20T10:44:50.727Z,27.39
2018-07-20T10:47:18.833Z,27.50
2018-07-20T10:49:46.983Z,27.52
2018-07-20T10:52:15.158Z,27.69
2018-07-20T10:54:43.225Z,27.97
2018-07-20T10:57:11.208Z,28.00
2018-07-20T10:59:39.258Z,27.85
2018-07-20T11:02:07.302Z,27.99
2018-07-20T11:04:35.310Z,28.12
2018-07-20T11:07:03.287Z,28.16
2018-07-20T11:09:31.293Z,28.19
2018-07-20T11:11:59.498Z,28.15
2018-07-20T11:14:27.420Z,28.18
2018-07-20T11:16:55.464Z,28.01
2018-07-20T11:19:23.384Z,28.06
2018-07-20T11:21:51.372Z,28.08
2018-07-20T11:24:19.378Z,28.34
2018-07-20T11:26:47.296Z,28.61
2018-07-20T11:29:15.355Z,28.77
2018-07-20T11:31:43.349Z,28.86
2018-07-20T11:34:11.338Z,28.85
2018-07-20T11:36:39.529Z,28.78
2018-07-20T11:39:08.782Z,29.00
2018-07-20T11:41:37.331Z,28.80
2018-07-20T11:44:05.387Z,28.85
2018-07-20T11:46:33.426Z,29.15
2018-07-20T11:49:01.377Z,29.17
2018-07-20T11:51:29.390Z,28.96
2018-07-20T11:53:57.386Z,29.05
2018-07-20T11:56:25.655Z,28.69
2018-07-20T11:58:53.709Z,28.70
2018-07-20T12:01:21.773Z,28.57
2018-07-20T12:03:49.838Z,28.73
2018-07-20T12:06:17.817Z,28.67
2018-07-20T12:08:45.873Z,28.76
2018-07-20T12:11:13.835Z,28.79
2018-07-20T12:13:41.941Z,28.77
2018-07-20T12:16:09.966Z,28.80
2018-07-20T12:18:38.018Z,28.93
2018-07-20T12:21:06.266Z,29.03
2018-07-20T12:23:34.298Z,29.03
2018-07-20T12:26:02.253Z,29.07
2018-07-20T12:28:30.232Z,28.99
2018-07-20T12:30:58.212Z,28.93
2018-07-20T12:33:26.323Z,28.76
2018-07-20T12:35:54.381Z,29.00
2018-07-20T12:38:22.330Z,29.11
2018-07-20T12:40:50.324Z,29.09
2018-07-20T12:43:18.379Z,29.31
2018-07-20T12:45:46.400Z,29.27
2018-07-20T12:48:14.372Z,29.49
2018-07-20T12:50:42.422Z,29.81
2018-07-20T12:53:10.518Z,30.31
2018-07-20T12:55:38.553Z,30.74
2018-07-20T12:58:06.590Z,31.20
2018-07-20T13:00:34.594Z,31.64
2018-07-20T13:03:02.587Z,31.58
2018-07-20T13:05:30.952Z,31.85
2018-07-20T13:07:58.995Z,31.76
2018-07-20T13:10:27.022Z,31.69
2018-07-20T13:12:55.050Z,31.37
2018-07-20T13:15:23.958Z,31.21
2018-07-20T13:17:51.961Z,32.00
2018-07-20T13:20:19.955Z,32.01
2018-07-20T13:22:48.048Z,32.11
2018-07-20T13:25:16.064Z,31.95
2018-07-20T13:27:44.060Z,31.27
2018-07-20T13:30:12.034Z,30.62
2018-07-20T13:32:40.210Z,30.51
2018-07-20T13:35:08.548Z,31.22
2018-07-20T13:37:36.499Z,31.32
2018-07-20T13:40:05.384Z,30.32
2018-07-20T13:42:33.365Z,29.71
2018-07-20T13:45:01.412Z,29.86
2018-07-20T13:47:29.519Z,30.66
2018-07-20T13:49:57.498Z,31.17
2018-07-20T13:52:25.526Z,31.12
2018-07-20T13:54:53.574Z,31.14
2018-07-20T13:57:21.681Z,31.12
2018-07-20T13:59:49.872Z,30.53
2018-07-20T14:02:17.876Z,30.59
2018-07-20T14:04:45.943Z,31.18
2018-07-20T14:07:13.920Z,31.44
2018-07-20T14:09:41.837Z,32.07
2018-07-20T14:12:09.936Z,32.15
2018-07-20T14:14:38.053Z,32.10
2018-07-20T14:17:06.027Z,32.07
2018-07-20T14:19:33.906Z,31.83
2018-07-20T14:22:01.894Z,32.18
2018-07-20T14:24:29.971Z,31.87
2018-07-20T14:26:58.008Z,31.69
2018-07-20T14:29:26.075Z,31.70
2018-07-20T14:31:54.221Z,31.49
2018-07-20T14:34:22.316Z,31.08
2018-07-20T14:36:50.562Z,30.93
2018-07-20T14:39:18.751Z,31.09
2018-07-20T14:41:46.824Z,30.68
2018-07-20T14:44:15.057Z,30.93
2018-07-20T14:46:43.081Z,30.74
2018-07-20T14:49:11.262Z,30.88
2018-07-20T14:51:39.343Z,30.73
2018-07-20T14:54:07.407Z,30.68
2018-07-20T14:56:35.355Z,30.44
2018-07-20T14:59:04.090Z,30.09
2018-07-20T15:01:32.194Z,29.71
2018-07-20T15:04:00.268Z,29.70
2018-07-20T15:06:28.341Z,29.64
2018-07-20T15:08:56.376Z,29.70
2018-07-20T15:11:24.417Z,29.53
2018-07-20T15:13:52.607Z,29.30
2018-07-20T15:16:20.746Z,29.25
2018-07-20T15:18:49.788Z,29.26
2018-07-20T15:21:18.262Z,29.17
2018-07-20T15:23:46.421Z,29.25
2018-07-20T15:26:14.628Z,29.39
2018-07-20T15:28:42.622Z,29.51
2018-07-20T15:31:10.816Z,29.58
2018-07-20T15:33:39.211Z,29.36
2018-07-20T15:36:07.214Z,29.22
2018-07-20T15:38:35.265Z,29.16
2018-07-20T15:41:03.395Z,29.08
2018-07-20T15:43:31.370Z,29.10
2018-07-20T15:46:05.967Z,29.12
2018-07-20T15:48:28.107Z,28.95
2018-07-20T15:50:56.104Z,28.99
2018-07-20T15:53:39.116Z,28.92
2018-07-20T15:55:52.169Z,29.03
2018-07-20T15:58:20.211Z,28.90
2018-07-20T16:00:48.164Z,28.77
2018-07-20T16:03:16.149Z,28.80
2018-07-20T16:05:44.223Z,28.59
2018-07-20T16:08:12.408Z,28.72
2018-07-20T16:10:40.738Z,28.88
2018-07-20T16:13:09.216Z,28.96
2018-07-20T16:15:37.185Z,28.79
2018-07-20T16:18:05.632Z,28.63
2018-07-20T16:20:33.718Z,28.51
2018-07-20T16:23:01.778Z,28.27
2018-07-20T16:25:29.916Z,28.02
2018-07-20T16:27:57.961Z,28.01
2018-07-20T16:30:26.032Z,27.93
2018-07-20T16:32:54.188Z,27.77
2018-07-20T16:35:22.207Z,27.77
2018-07-20T16:37:50.140Z,27.68
2018-07-20T16:40:18.416Z,27.47
2018-07-20T16:42:46.382Z,27.49
2018-07-20T16:45:14.352Z,27.38
2018-07-20T16:47:42.404Z,27.29
2018-07-20T16:50:10.488Z,27.25
2018-07-20T16:52:38.524Z,27.20
2018-07-20T16:55:06.566Z,27.16
2018-07-20T16:57:34.607Z,27.11
2018-07-20T17:00:03.814Z,27.11
2018-07-20T17:02:31.797Z,27.06
2018-07-20T17:04:59.841Z,27.10
2018-07-20T17:07:28.143Z,27.01
2018-07-20T17:09:56.194Z,26.98
2018-07-20T17:12:24.112Z,26.96
2018-07-20T17:14:52.160Z,26.97
2018-07-20T17:17:20.265Z,26.93
2018-07-20T17:19:48.800Z,26.87
2018-07-20T17:22:16.854Z,26.90
2018-07-20T17:24:44.855Z,26.83
2018-07-20T17:27:12.998Z,26.86
2018-07-20T17:29:41.138Z,26.86
2018-07-20T17:32:09.062Z,26.83
2018-07-20T17:34:36.981Z,26.88
2018-07-20T17:37:05.031Z,26.81
2018-07-20T17:39:33.155Z,26.78
2018-07-20T17:42:01.172Z,26.76
2018-07-20T17:44:29.177Z,26.75
2018-07-20T17:46:58.633Z,26.81
2018-07-20T17:49:26.666Z,26.80
2018-07-20T17:51:54.992Z,26.68
2018-07-20T17:54:23.054Z,26.67
2018-07-20T17:56:51.070Z,26.59
2018-07-20T17:59:19.562Z,26.60
2018-07-20T18:01:47.572Z,26.67
2018-07-20T18:04:15.640Z,26.67
2018-07-20T18:06:43.687Z,26.62
2018-07-20T18:09:11.722Z,26.59
2018-07-20T18:11:39.893Z,26.63
2018-07-20T18:14:08.083Z,26.56
2018-07-20T18:16:36.056Z,26.55
2018-07-20T18:19:04.211Z,26.56
2018-07-20T18:21:32.305Z,26.49
2018-07-20T18:24:00.520Z,26.45
2018-07-20T18:26:28.585Z,26.48
2018-07-20T18:28:56.548Z,26.47
2018-07-20T18:31:24.464Z,26.47
2018-07-20T18:33:52.479Z,26.40
2018-07-20T18:36:20.467Z,26.34
2018-07-20T18:38:48.480Z,26.30
2018-07-20T18:41:16.460Z,26.25
2018-07-20T18:43:44.573Z,26.35
2018-07-20T18:46:12.548Z,26.34
2018-07-20T18:48:40.625Z,26.26
2018-07-20T18:51:08.641Z,26.24
2018-07-20T18:53:36.618Z,26.21
2018-07-20T18:56:04.854Z,26.24
2018-07-20T18:58:32.831Z,26.20
2018-07-20T19:01:00.931Z,26.24
2018-07-20T19:03:29.060Z,26.22
2018-07-20T19:05:57.554Z,26.23
2018-07-20T19:08:27.268Z,26.21
2018-07-20T19:10:55.274Z,26.13
2018-07-20T19:13:23.415Z,26.15
2018-07-20T19:15:51.407Z,26.11
2018-07-20T19:18:19.535Z,26.15
2018-07-20T19:20:47.587Z,26.14
2018-07-20T19:23:15.567Z,26.09
2018-07-20T19:25:43.588Z,26.14
2018-07-20T19:28:11.648Z,26.08
2018-07-20T19:30:40.836Z,26.20
2018-07-20T19:33:09.006Z,26.07
2018-07-20T19:35:37.025Z,26.05
2018-07-20T19:38:05.345Z,25.95
2018-07-20T19:40:33.629Z,25.86
2018-07-20T19:43:01.640Z,25.74
2018-07-20T19:45:29.783Z,25.68
2018-07-20T19:47:57.895Z,25.61
2018-07-20T19:50:26.177Z,25.64
2018-07-20T19:52:54.242Z,25.59
2018-07-20T19:55:22.289Z,25.66
2018-07-20T19:57:50.245Z,25.64
2018-07-20T20:00:18.579Z,25.65
2018-07-20T20:02:46.711Z,25.63
2018-07-20T20:05:14.702Z,25.74
2018-07-20T20:07:42.956Z,25.74
2018-07-20T20:10:11.033Z,25.63
2018-07-20T20:12:38.999Z,25.56
2018-07-20T20:15:07.389Z,25.48
2018-07-20T20:17:35.546Z,25.47
2018-07-20T20:20:04.109Z,25.45
2018-07-20T20:22:32.105Z,25.39
2018-07-20T20:25:00.129Z,25.28
2018-07-20T20:27:28.112Z,25.19
2018-07-20T20:29:56.261Z,25.20
2018-07-20T20:32:24.446Z,25.21
2018-07-20T20:34:52.445Z,25.27
2018-07-20T20:37:20.461Z,25.25
2018-07-20T20:39:48.545Z,25.32
2018-07-20T20:42:16.546Z,25.30
2018-07-20T20:44:44.561Z,25.28
2018-07-20T20:47:12.674Z,25.23
2018-07-20T20:49:40.797Z,25.27
2018-07-20T20:52:08.770Z,25.26
2018-07-20T20:54:36.703Z,25.35
2018-07-20T20:57:04.740Z,25.21
2018-07-20T20:59:32.782Z,25.17
2018-07-20T21:02:00.788Z,25.17
2018-07-20T21:04:28.875Z,25.15
2018-07-20T21:06:56.977Z,25.12
2018-07-20T21:09:25.319Z,25.26
2018-07-20T21:11:53.357Z,25.25
2018-07-20T21:14:21.354Z,25.24
2018-07-20T21:16:49.429Z,25.22
2018-07-20T21:19:17.382Z,25.26
2018-07-20T21:21:45.431Z,25.36
2018-07-20T21:24:13.597Z,25.32
2018-07-20T21:26:41.657Z,25.41
2018-07-20T21:29:09.620Z,25.45
2018-07-20T21:31:37.691Z,25.48
2018-07-20T21:34:05.736Z,25.58
2018-07-20T21:36:33.793Z,25.59
2018-07-20T21:39:01.762Z,25.60
2018-07-20T21:41:29.996Z,25.59
2018-07-20T21:43:58.096Z,25.70
2018-07-20T21:46:26.123Z,25.72
2018-07-20T21:48:54.064Z,25.73
2018-07-20T21:51:22.027Z,25.68
2018-07-20T21:53:50.007Z,25.67
2018-07-20T21:56:18.075Z,25.65
2018-07-20T21:58:46.122Z,25.64
2018-07-20T22:01:14.191Z,25.74
2018-07-20T22:03:42.171Z,25.74
2018-07-20T22:06:10.271Z,25.68
2018-07-20T22:08:38.374Z,25.64
2018-07-20T22:11:06.425Z,25.69
2018-07-20T22:13:34.358Z,25.71
2018-07-20T22:16:02.524Z,25.69
2018-07-20T22:18:30.507Z,25.64
2018-07-20T22:20:58.502Z,25.60
2018-07-20T22:23:26.589Z,25.49
2018-07-20T22:25:54.741Z,25.57
2018-07-20T22:28:22.677Z,25.49
2018-07-20T22:30:50.705Z,25.44
2018-07-20T22:33:19.232Z,25.43
2018-07-20T22:35:47.219Z,25.41
2018-07-20T22:38:15.397Z,25.39
2018-07-20T22:40:43.490Z,25.34
2018-07-20T22:43:11.500Z,25.33
2018-07-20T22:45:39.501Z,25.28
2018-07-20T22:48:07.501Z,25.31
2018-07-20T22:50:35.521Z,25.25
2018-07-20T22:53:03.539Z,25.25
2018-07-20T22:55:31.519Z,25.27
2018-07-20T22:57:59.552Z,25.22
2018-07-20T23:00:27.775Z,25.13
2018-07-20T23:02:55.835Z,25.11
2018-07-20T23:05:23.939Z,25.09
2018-07-20T23:07:51.861Z,25.08
2018-07-20T23:10:19.876Z,25.10
2018-07-20T23:12:47.976Z,25.11
2018-07-20T23:15:16.040Z,25.10
2018-07-20T23:17:44.391Z,25.06
2018-07-20T23:20:12.367Z,25.07
2018-07-20T23:22:40.337Z,25.08
2018-07-20T23:25:08.267Z,25.10
2018-07-20T23:27:36.276Z,25.12
2018-07-20T23:30:04.575Z,25.06
2018-07-20T23:32:32.517Z,25.07
2018-07-20T23:35:00.473Z,25.03
2018-07-20T23:37:28.556Z,25.02
2018-07-20T23:39:56.589Z,24.95
2018-07-20T23:42:24.676Z,24.91
2018-07-20T23:44:52.654Z,24.92
2018-07-20T23:47:20.626Z,24.84
2018-07-20T23:49:48.661Z,24.88
2018-07-20T23:52:16.716Z,24.89
2018-07-20T23:54:44.825Z,24.83
2018-07-20T23:57:12.837Z,24.80
2018-07-20T23:59:40.931Z,24.84
